Parkin, Arkansas
Current Conditions -  °F | °C
As of 4:53 PM on Friday 31 Oct 2014 (Local Time) from KAWM Reporting Station
Few Clouds Few Clouds  
Wind Chill: 13°   Ceiling: Unl
Heat Index: 13°   Visibility: 10mi
Dew Point: -1°   Wind: 21mph
Humidity: 38%   Direction: 10°N
Pressure: 30.2"   Gusts: 33mph
Location:  35.26°N, 90.57°W
Report Text: KAWM 312153Z AUTO 01018G29KT 10SM FEW060 13/M01 A3020 RMK AO2 PK WND 02029/2144 SLP224 T01281011
Loading
Personal Weather Stations






























Interactive Weather Map
Tropical Storm Tracking
New forecast layout! Learn more

10-Day Weather Forecast

Advertisements
Track Severe Weather on mobile